Tanais Express — V3OQ8 — position and weather

sailwx.info

Track history (hours):
 
Tides and Currents Weather Stations Pressure Air Temp Water Temp Dewpoint Dewpoint Depression Visibility Wind Speed Wind Dir Waves Ship Positions

Tanais Express

Last reported at 2014-Aug-28 23:33 UTC. Time now 2014-Sep-03 02:22 UTC.
Position N 40°54' E 001°33'.

Length 159 m; draft 10.1 m.

Type: Cargo ship. MMSI: 312655000.

Date/timePositionNaut miles runAvg speedWind from/ knotsBaromVisibWave heightAir tempDewpointWater temp
2014-Aug-28 23:33N 40°54' E 001°33'12 9.4
2014-Aug-28 22:15N 40°47' E 001°47'6 9.1
2014-Aug-28 21:33N 40°43' E 001°54'9 9.1
2014-Aug-28 20:33N 40°39' E 002°04'9 9.1
2014-Aug-28 19:33N 40°34' E 002°14'9 8.9
2014-Aug-28 18:33N 40°29' E 002°23'9 8.6
2014-Aug-28 17:33N 40°24' E 002°33'9 8.9
2014-Aug-28 16:33N 40°20' E 002°43'9 9.0
2014-Aug-28 15:33N 40°15' E 002°53'9 9.2
2014-Aug-28 14:33N 40°10' E 003°03'2210.0
2014-Aug-28 12:22N 39°58' E 003°28'17 8.9
2014-Aug-28 10:29N 39°49' E 003°46'13810.5
2014-Aug-27 21:19N 38°53' E 006°29'7410.7
2014-Aug-27 14:21N 38°24' E 007°56'910.3
2014-Aug-27 13:31N 38°20' E 008°06'1410.4
2014-Aug-27 12:10N 38°14' E 008°22'4210.7
2014-Aug-27 08:14N 37°57' E 009°11'810.8
2014-Aug-27 07:32N 37°54' E 009°20'1010.5
2014-Aug-27 06:33N 37°50' E 009°32'1110.2
2014-Aug-27 05:26N 37°45' E 009°45'910.0
2014-Aug-27 04:30N 37°42' E 009°56'2010.3
2014-Aug-27 02:31N 37°38' E 010°21'1010.7
2014-Aug-27 01:33N 37°36' E 010°34'1110.8
2014-Aug-27 00:33N 37°33' E 010°47'1110.7
2014-Aug-26 23:33N 37°30' E 011°00'1111.2
2014-Aug-26 22:33N 37°27' E 011°14'5611.2
2014-Aug-26 17:33N 37°03' E 012°17'1211.1
2014-Aug-26 16:31N 36°58' E 012°31'1411.1
2014-Aug-26 15:17N 36°53' E 012°46'810.9
2014-Aug-26 14:33N 36°49' E 012°55'1310.7
2014-Aug-26 13:19N 36°45' E 013°11'910.6
2014-Aug-26 12:30N 36°42' E 013°21'56 6.9
2014-Aug-26 04:18N 36°16' E 014°23'17 9.9
2014-Aug-26 02:33N 36°03' E 014°38'16 5.1
2014-Aug-25 23:24N 35°51' E 014°50'0 0.0
2014-Aug-25 21:22N 35°51' E 014°50'439 9.5
2014-Aug-23 23:15N 37°10' E 023°48'911.3
2014-Aug-23 22:26N 37°18' E 023°53'3410.2
2014-Aug-23 19:05N 37°46' E 024°19'288 7.4
2014-Aug-22 04:28N 40°56' E 028°57'6 6.7
2014-Aug-22 03:33N 40°51' E 029°01'4 3.5
2014-Aug-22 02:30N 40°48' E 028°58'0 0.2
2014-Aug-22 01:12N 40°48' E 028°58'0 0.2
2014-Aug-22 00:29N 40°48' E 028°58'3 3.2
2014-Aug-21 23:28N 40°51' E 028°57'7 6.5
2014-Aug-21 22:19N 40°59' E 028°59'  
Track history (hours):
 
Tides and Currents Weather Stations Pressure Air Temp Water Temp Dewpoint Dewpoint Depression Visibility Wind Speed Wind Dir Waves Ship Positions

Tanais Express

Last reported at 2014-Aug-28 23:33 UTC. Time now 2014-Sep-03 02:22 UTC.
Position N 40°54' E 001°33'.

Length 159 m; draft 10.1 m.

Type: Cargo ship. MMSI: 312655000.

Date/timePositionNaut miles runAvg speedWind from/ knotsBaromVisibWave heightAir tempDewpointWater temp
2014-Aug-28 23:33N 40°54' E 001°33'12 9.4
2014-Aug-28 22:15N 40°47' E 001°47'6 9.1
2014-Aug-28 21:33N 40°43' E 001°54'9 9.1
2014-Aug-28 20:33N 40°39' E 002°04'9 9.1
2014-Aug-28 19:33N 40°34' E 002°14'9 8.9
2014-Aug-28 18:33N 40°29' E 002°23'9 8.6
2014-Aug-28 17:33N 40°24' E 002°33'9 8.9
2014-Aug-28 16:33N 40°20' E 002°43'9 9.0
2014-Aug-28 15:33N 40°15' E 002°53'9 9.2
2014-Aug-28 14:33N 40°10' E 003°03'2210.0
2014-Aug-28 12:22N 39°58' E 003°28'17 8.9
2014-Aug-28 10:29N 39°49' E 003°46'13810.5
2014-Aug-27 21:19N 38°53' E 006°29'7410.7
2014-Aug-27 14:21N 38°24' E 007°56'910.3
2014-Aug-27 13:31N 38°20' E 008°06'1410.4
2014-Aug-27 12:10N 38°14' E 008°22'4210.7
2014-Aug-27 08:14N 37°57' E 009°11'810.8
2014-Aug-27 07:32N 37°54' E 009°20'1010.5
2014-Aug-27 06:33N 37°50' E 009°32'1110.2
2014-Aug-27 05:26N 37°45' E 009°45'910.0
2014-Aug-27 04:30N 37°42' E 009°56'2010.3
2014-Aug-27 02:31N 37°38' E 010°21'1010.7
2014-Aug-27 01:33N 37°36' E 010°34'1110.8
2014-Aug-27 00:33N 37°33' E 010°47'1110.7
2014-Aug-26 23:33N 37°30' E 011°00'1111.2
2014-Aug-26 22:33N 37°27' E 011°14'5611.2
2014-Aug-26 17:33N 37°03' E 012°17'1211.1
2014-Aug-26 16:31N 36°58' E 012°31'1411.1
2014-Aug-26 15:17N 36°53' E 012°46'810.9
2014-Aug-26 14:33N 36°49' E 012°55'1310.7
2014-Aug-26 13:19N 36°45' E 013°11'910.6
2014-Aug-26 12:30N 36°42' E 013°21'56 6.9
2014-Aug-26 04:18N 36°16' E 014°23'17 9.9
2014-Aug-26 02:33N 36°03' E 014°38'16 5.1
2014-Aug-25 23:24N 35°51' E 014°50'0 0.0
2014-Aug-25 21:22N 35°51' E 014°50'439 9.5
2014-Aug-23 23:15N 37°10' E 023°48'911.3
2014-Aug-23 22:26N 37°18' E 023°53'3410.2
2014-Aug-23 19:05N 37°46' E 024°19'288 7.4
2014-Aug-22 04:28N 40°56' E 028°57'6 6.7
2014-Aug-22 03:33N 40°51' E 029°01'4 3.5
2014-Aug-22 02:30N 40°48' E 028°58'0 0.2
2014-Aug-22 01:12N 40°48' E 028°58'0 0.2
2014-Aug-22 00:29N 40°48' E 028°58'3 3.2
2014-Aug-21 23:28N 40°51' E 028°57'7 6.5
2014-Aug-21 22:19N 40°59' E 028°59'  

Dump ship's entire track history